createdAt,value
2022-09-10T00:00:16.289Z,99442.41
2022-09-10T00:01:07.281Z,99442.75
2022-09-10T00:01:56.398Z,99436.41
2022-09-10T00:02:51.171Z,99440.22
2022-09-10T00:03:45.327Z,99441.44
2022-09-10T00:04:39.032Z,99443.28
2022-09-10T00:05:32.872Z,99436.91
2022-09-10T00:06:25.406Z,99439.25
2022-09-10T00:07:18.459Z,99445.78
2022-09-10T00:09:15.392Z,99433.56
2022-09-10T00:10:09.897Z,99436.88
2022-09-10T00:11:08.415Z,99430.22
2022-09-10T00:12:01.625Z,99435.09
2022-09-10T00:12:55.410Z,99436.44
2022-09-10T00:13:53.506Z,99430.91
2022-09-10T00:14:56.450Z,99435.06
2022-09-10T00:15:54.318Z,99434.06
2022-09-10T00:16:48.433Z,99430.41
2022-09-10T00:17:42.476Z,99425.91
2022-09-10T00:18:42.908Z,99429.53
2022-09-10T00:19:36.293Z,99430.41
2022-09-10T00:20:28.405Z,99424.41
2022-09-10T00:21:19.619Z,99425.91
2022-09-10T00:22:12.118Z,99425.91
2022-09-10T00:23:04.117Z,99432.09
2022-09-10T00:25:06.260Z,99427.75
2022-09-10T00:25:57.937Z,99429.41
2022-09-10T00:26:53.661Z,99426.94
2022-09-10T00:27:45.762Z,99429.25
2022-09-10T00:28:36.668Z,99430.94
2022-09-10T00:29:32.589Z,99429.94
2022-09-10T00:30:22.831Z,99428.75
2022-09-10T00:31:15.282Z,99430.09
2022-09-10T00:32:08.867Z,99422.75
2022-09-10T00:33:01.734Z,99421.06
2022-09-10T00:33:53.650Z,99420.56
2022-09-10T00:35:46.835Z,99417.16
2022-09-10T00:36:39.835Z,99423.84
2022-09-10T00:37:33.729Z,99429.03
2022-09-10T00:38:26.859Z,99428.53
2022-09-10T00:39:19.727Z,99426.50
2022-09-10T00:40:11.589Z,99433.19
2022-09-10T00:41:00.361Z,99429.69
2022-09-10T00:41:53.735Z,99440.69
2022-09-10T00:42:43.675Z,99427.53
2022-09-10T00:43:37.362Z,99441.22
2022-09-10T00:44:41.138Z,99431.88
2022-09-10T00:45:36.262Z,99432.72
2022-09-10T00:46:32.044Z,99431.88
2022-09-10T00:47:15.815Z,99432.56
2022-09-10T00:48:09.148Z,99438.25
2022-09-10T00:49:03.233Z,99433.25
2022-09-10T00:49:59.159Z,99429.41
2022-09-10T00:50:48.448Z,99427.91
2022-09-10T00:51:45.723Z,99430.06
2022-09-10T00:52:39.977Z,99419.56
2022-09-10T00:53:30.734Z,99427.41
2022-09-10T00:54:24.578Z,99422.25
2022-09-10T00:55:18.669Z,99426.06
2022-09-10T00:56:16.737Z,99423.53
2022-09-10T00:57:11.773Z,99425.88
2022-09-10T00:58:03.334Z,99428.72
2022-09-10T00:58:55.652Z,99428.91
2022-09-10T00:59:47.840Z,99426.56
2022-09-10T01:00:40.768Z,99429.75
2022-09-10T01:01:36.365Z,99425.72
2022-09-10T01:02:27.873Z,99423.88
2022-09-10T01:03:23.683Z,99422.06
2022-09-10T01:04:18.986Z,99419.91
2022-09-10T01:05:12.301Z,99423.56
2022-09-10T01:07:59.651Z,99430.94
2022-09-10T01:08:52.358Z,99425.59
2022-09-10T01:09:43.563Z,99422.59
2022-09-10T01:10:39.327Z,99426.41
2022-09-10T01:11:34.727Z,99429.94
2022-09-10T01:12:42.775Z,99427.13
2022-09-10T01:13:41.898Z,99428.09
2022-09-10T01:14:33.622Z,99421.78
2022-09-10T01:15:27.019Z,99422.91
2022-09-10T01:16:10.392Z,99427.13
2022-09-10T01:17:01.454Z,99422.91
2022-09-10T01:17:52.661Z,99421.25
2022-09-10T01:18:43.451Z,99426.59
2022-09-10T01:19:48.077Z,99420.75
2022-09-10T01:20:37.359Z,99423.75
2022-09-10T01:21:34.984Z,99422.41
2022-09-10T01:22:22.897Z,99421.25
2022-09-10T01:23:17.046Z,99419.59
2022-09-10T01:24:21.738Z,99419.75
2022-09-10T01:25:13.615Z,99418.91
2022-09-10T01:25:56.072Z,99428.09
2022-09-10T01:26:57.913Z,99425.91
2022-09-10T01:27:49.833Z,99433.59
2022-09-10T01:28:40.889Z,99426.56
2022-09-10T01:29:25.696Z,99423.91
2022-09-10T01:30:13.926Z,99428.75
2022-09-10T01:31:05.587Z,99428.41
2022-09-10T01:32:14.272Z,99429.25
2022-09-10T01:33:11.737Z,99426.56
2022-09-10T01:34:06.702Z,99424.25
2022-09-10T01:34:53.008Z,99430.75
2022-09-10T01:35:39.814Z,99427.94
2022-09-10T01:36:32.328Z,99428.91
2022-09-10T01:37:25.169Z,99426.25
2022-09-10T01:38:15.439Z,99429.06
2022-09-10T01:39:07.493Z,99426.88
2022-09-10T01:39:59.457Z,99433.25
2022-09-10T01:40:52.863Z,99424.19
2022-09-10T01:41:44.083Z,99422.53
2022-09-10T01:42:41.455Z,99424.91
2022-09-10T01:43:33.018Z,99426.56
2022-09-10T01:44:25.005Z,99430.91
2022-09-10T01:45:17.215Z,99424.22
2022-09-10T01:46:12.868Z,99429.22
2022-09-10T01:47:06.191Z,99432.44
2022-09-10T01:48:10.316Z,99427.91
2022-09-10T01:48:58.604Z,99422.25
2022-09-10T01:49:51.050Z,99430.25
2022-09-10T01:50:51.036Z,99432.22
2022-09-10T01:51:46.458Z,99431.56
2022-09-10T01:52:57.067Z,99434.56
2022-09-10T01:53:38.892Z,99434.88
2022-09-10T01:54:26.283Z,99436.25
2022-09-10T01:55:29.599Z,99433.25
2022-09-10T01:56:24.115Z,99435.25
2022-09-10T01:57:15.222Z,99437.56
2022-09-10T01:58:09.691Z,99432.44
2022-09-10T01:59:02.925Z,99441.44
2022-09-10T02:00:08.223Z,99433.91
2022-09-10T02:01:01.238Z,99440.94
2022-09-10T02:01:59.408Z,99435.09
2022-09-10T02:02:46.475Z,99437.94
2022-09-10T02:03:47.053Z,99439.91
2022-09-10T02:04:40.546Z,99434.25
2022-09-10T02:05:31.715Z,99435.09
2022-09-10T02:06:22.337Z,99440.44
2022-09-10T02:07:18.737Z,99439.41
2022-09-10T02:08:15.990Z,99429.91
2022-09-10T02:09:13.759Z,99436.91
2022-09-10T02:10:06.648Z,99438.75
2022-09-10T02:11:18.547Z,99430.59
2022-09-10T02:12:12.292Z,99433.75
2022-09-10T02:13:03.326Z,99430.25
2022-09-10T02:14:02.377Z,99439.91
2022-09-10T02:14:55.203Z,99439.91
2022-09-10T02:15:46.716Z,99439.59
2022-09-10T02:16:42.175Z,99441.59
2022-09-10T02:17:31.690Z,99441.59
2022-09-10T02:18:21.184Z,99438.91
2022-09-10T02:19:15.851Z,99437.25
2022-09-10T02:20:07.205Z,99442.59
2022-09-10T02:20:57.054Z,99436.06
2022-09-10T02:21:47.368Z,99431.88
2022-09-10T02:22:37.646Z,99440.78
2022-09-10T02:23:27.754Z,99435.41
2022-09-10T02:24:21.900Z,99434.41
2022-09-10T02:25:10.387Z,99429.22
2022-09-10T02:25:58.169Z,99427.25
2022-09-10T02:26:51.582Z,99438.25
2022-09-10T02:27:40.424Z,99433.75
2022-09-10T02:28:30.059Z,99427.91
2022-09-10T02:29:18.992Z,99435.94
2022-09-10T02:30:10.200Z,99436.75
2022-09-10T02:31:00.822Z,99434.25
2022-09-10T02:31:56.266Z,99431.22
2022-09-10T02:32:47.090Z,99433.56
2022-09-10T02:33:39.378Z,99429.91
2022-09-10T02:34:29.627Z,99435.41
2022-09-10T02:35:20.970Z,99430.59
2022-09-10T02:36:11.561Z,99434.25
2022-09-10T02:37:05.159Z,99435.25
2022-09-10T02:37:55.859Z,99435.25
2022-09-10T02:38:46.508Z,99431.56
2022-09-10T02:39:37.190Z,99434.56
2022-09-10T02:40:27.830Z,99431.22
2022-09-10T02:41:18.713Z,99433.41
2022-09-10T02:42:15.718Z,99436.75
2022-09-10T02:43:05.737Z,99433.41
2022-09-10T02:43:55.623Z,99436.25
2022-09-10T02:44:45.533Z,99438.25
2022-09-10T02:45:34.044Z,99435.25
2022-09-10T02:46:24.876Z,99436.25
2022-09-10T02:47:19.390Z,99438.91
2022-09-10T02:48:09.189Z,99440.59
2022-09-10T02:48:59.687Z,99435.41
2022-09-10T02:49:47.263Z,99434.88
2022-09-10T02:50:36.484Z,99433.91
2022-09-10T02:51:27.647Z,99437.56
2022-09-10T02:52:22.205Z,99436.72
2022-09-10T02:53:09.843Z,99433.06
2022-09-10T02:53:56.052Z,99436.91
2022-09-10T02:54:44.797Z,99432.56
2022-09-10T02:55:34.502Z,99439.06
2022-09-10T02:56:24.979Z,99437.22
2022-09-10T02:57:19.182Z,99435.25
2022-09-10T02:58:09.328Z,99431.88
2022-09-10T02:58:58.074Z,99435.25
2022-09-10T02:59:48.164Z,99434.38
2022-09-10T03:00:38.103Z,99433.25
2022-09-10T03:01:27.786Z,99432.22
2022-09-10T03:02:19.656Z,99431.56
2022-09-10T03:04:16.689Z,99431.72
2022-09-10T03:05:09.986Z,99431.88
2022-09-10T03:06:02.779Z,99435.41
2022-09-10T03:06:58.035Z,99434.03
2022-09-10T03:07:53.628Z,99430.22
2022-09-10T03:08:46.521Z,99426.84
2022-09-10T03:09:38.369Z,99433.56
2022-09-10T03:10:29.759Z,99437.53
2022-09-10T03:11:22.214Z,99425.72
2022-09-10T03:12:14.230Z,99419.38
2022-09-10T03:13:14.823Z,99426.69
2022-09-10T03:14:06.870Z,99426.53
2022-09-10T03:14:59.226Z,99431.88
2022-09-10T03:15:52.042Z,99430.72
2022-09-10T03:16:48.585Z,99428.53
2022-09-10T03:17:40.631Z,99433.06
2022-09-10T03:18:36.840Z,99430.22
2022-09-10T03:19:28.558Z,99425.72
2022-09-10T03:20:18.877Z,99429.19
2022-09-10T03:21:16.140Z,99426.84
2022-09-10T03:22:09.387Z,99430.22
2022-09-10T03:23:01.405Z,99430.38
2022-09-10T03:23:59.853Z,99433.56
2022-09-10T03:24:56.256Z,99437.22
2022-09-10T03:25:49.980Z,99425.19
2022-09-10T03:26:40.544Z,99431.38
2022-09-10T03:27:37.365Z,99426.19
2022-09-10T03:28:29.273Z,99437.19
2022-09-10T03:29:22.175Z,99433.69
2022-09-10T03:30:14.154Z,99435.34
2022-09-10T03:31:06.948Z,99423.84
2022-09-10T03:32:00.031Z,99430.19
2022-09-10T03:32:58.756Z,99429.19
2022-09-10T03:33:51.687Z,99434.19
2022-09-10T03:35:26.062Z,99432.53
2022-09-10T03:36:21.167Z,99440.88
2022-09-10T03:37:17.443Z,99431.00
2022-09-10T03:38:08.788Z,99436.84
2022-09-10T03:39:01.622Z,99434.84
2022-09-10T03:39:55.848Z,99429.50
2022-09-10T03:40:47.186Z,99429.81
2022-09-10T03:41:39.823Z,99432.00
2022-09-10T03:42:39.969Z,99436.38
2022-09-10T03:43:31.318Z,99433.53
2022-09-10T03:44:22.874Z,99429.19
2022-09-10T03:45:16.954Z,99429.16
2022-09-10T03:46:06.796Z,99426.66
2022-09-10T03:46:56.779Z,99432.88
2022-09-10T03:47:51.483Z,99434.03
2022-09-10T03:48:41.462Z,99428.50
2022-09-10T03:49:30.529Z,99432.88
2022-09-10T03:50:20.189Z,99429.19
2022-09-10T03:51:09.745Z,99432.88
2022-09-10T03:52:00.355Z,99435.53
2022-09-10T03:52:54.995Z,99432.34
2022-09-10T03:53:45.788Z,99427.84
2022-09-10T03:54:35.498Z,99431.19
2022-09-10T03:55:27.007Z,99436.84
2022-09-10T03:56:17.690Z,99433.84
2022-09-10T03:57:07.676Z,99430.00
2022-09-10T03:57:59.083Z,99435.34
2022-09-10T03:58:49.628Z,99434.03
2022-09-10T03:59:42.444Z,99440.88
2022-09-10T04:00:34.899Z,99439.88
2022-09-10T04:01:26.856Z,99440.03
2022-09-10T04:02:20.227Z,99433.69
2022-09-10T04:03:20.213Z,99441.03
2022-09-10T04:04:12.713Z,99433.84
2022-09-10T04:05:05.850Z,99436.84
2022-09-10T04:05:57.039Z,99437.53
2022-09-10T04:06:48.696Z,99430.88
2022-09-10T04:07:40.338Z,99436.53
2022-09-10T04:09:35.097Z,99436.53
2022-09-10T04:10:27.560Z,99432.19
2022-09-10T04:11:17.344Z,99433.84
2022-09-10T04:12:05.963Z,99433.34
2022-09-10T04:13:00.791Z,99434.84
2022-09-10T04:13:56.256Z,99433.50
2022-09-10T04:14:47.995Z,99443.69
2022-09-10T04:15:41.993Z,99442.50
2022-09-10T04:16:35.659Z,99444.53
2022-09-10T04:17:27.014Z,99436.84
2022-09-10T04:18:17.556Z,99438.53
2022-09-10T04:20:13.206Z,99443.56
2022-09-10T04:21:05.171Z,99440.19
2022-09-10T04:21:54.214Z,99441.22
2022-09-10T04:22:51.592Z,99438.38
2022-09-10T04:23:40.976Z,99440.19
2022-09-10T04:24:35.528Z,99438.22
2022-09-10T04:25:28.092Z,99434.84
2022-09-10T04:26:31.099Z,99438.69
2022-09-10T04:27:24.812Z,99438.00
2022-09-10T04:28:17.948Z,99441.38
2022-09-10T04:29:18.837Z,99439.38
2022-09-10T04:30:11.404Z,99437.53
2022-09-10T04:31:04.199Z,99438.53
2022-09-10T04:31:57.782Z,99436.84
2022-09-10T04:32:50.919Z,99435.16
2022-09-10T04:33:47.080Z,99435.16
2022-09-10T04:34:38.461Z,99438.53
2022-09-10T04:35:31.873Z,99430.69
2022-09-10T04:36:24.790Z,99436.84
2022-09-10T04:37:19.415Z,99439.53
2022-09-10T04:38:15.834Z,99436.84
2022-09-10T04:39:07.910Z,99443.34
2022-09-10T04:40:00.040Z,99437.16
2022-09-10T04:40:52.240Z,99440.50
2022-09-10T04:41:44.836Z,99447.53
2022-09-10T04:42:35.783Z,99445.84
2022-09-10T04:44:32.585Z,99442.88
2022-09-10T04:45:25.928Z,99440.34
2022-09-10T04:46:18.398Z,99434.50
2022-09-10T04:47:08.723Z,99441.38
2022-09-10T04:48:03.695Z,99443.19
2022-09-10T04:49:59.963Z,99442.50
2022-09-10T04:51:12.330Z,99436.03
2022-09-10T04:52:01.297Z,99444.88
2022-09-10T04:52:54.426Z,99444.38
2022-09-10T04:53:52.583Z,99445.03
2022-09-10T04:55:24.443Z,99436.84
2022-09-10T04:56:15.181Z,99447.53
2022-09-10T04:57:04.724Z,99446.72
2022-09-10T04:57:53.876Z,99442.00
2022-09-10T04:58:42.768Z,99444.53
2022-09-10T04:59:37.499Z,99447.03
2022-09-10T05:00:28.350Z,99447.03
2022-09-10T05:01:20.941Z,99450.69
2022-09-10T05:02:14.023Z,99452.88
2022-09-10T05:03:07.012Z,99453.53
2022-09-10T05:04:04.613Z,99447.84
2022-09-10T05:04:58.820Z,99445.34
2022-09-10T05:05:50.853Z,99447.34
2022-09-10T05:06:43.956Z,99445.34
2022-09-10T05:07:37.308Z,99451.19
2022-09-10T05:08:29.556Z,99441.84
2022-09-10T05:12:44.114Z,99452.84
2022-09-10T05:13:37.068Z,99451.16
2022-09-10T05:14:35.462Z,99441.84
2022-09-10T05:15:28.627Z,99456.66
2022-09-10T05:16:20.146Z,99455.00
2022-09-10T05:17:13.277Z,99454.69
2022-09-10T05:18:06.763Z,99451.31
2022-09-10T05:19:00.266Z,99450.34
2022-09-10T05:21:49.361Z,99455.53
2022-09-10T05:22:40.855Z,99448.50
2022-09-10T05:23:32.469Z,99457.53
2022-09-10T05:24:28.710Z,99452.84
2022-09-10T05:25:19.513Z,99454.00
2022-09-10T05:26:12.802Z,99456.34
2022-09-10T05:27:05.771Z,99453.53
2022-09-10T05:27:57.361Z,99449.19
2022-09-10T05:28:50.034Z,99456.34
2022-09-10T05:29:48.795Z,99451.16
2022-09-10T05:30:42.037Z,99452.19
2022-09-10T05:31:42.005Z,99451.31
2022-09-10T05:32:34.094Z,99446.84
2022-09-10T05:33:26.368Z,99446.69
2022-09-10T05:34:18.879Z,99455.00
2022-09-10T05:35:15.248Z,99454.84
2022-09-10T05:36:07.172Z,99452.19
2022-09-10T05:36:59.218Z,99457.22
2022-09-10T05:37:51.872Z,99463.19
2022-09-10T05:38:45.868Z,99454.31
2022-09-10T05:39:41.401Z,99454.16
2022-09-10T05:40:33.396Z,99458.66
2022-09-10T05:41:25.322Z,99460.03
2022-09-10T05:42:14.560Z,99454.84
2022-09-10T05:43:03.681Z,99462.88
2022-09-10T05:43:57.659Z,99463.84
2022-09-10T05:44:54.270Z,99462.31
2022-09-10T05:45:46.649Z,99461.66
2022-09-10T05:46:40.905Z,99463.19
2022-09-10T05:47:31.705Z,99466.84
2022-09-10T05:48:24.608Z,99459.84
2022-09-10T05:49:22.322Z,99463.19
2022-09-10T05:50:14.526Z,99457.00
2022-09-10T05:51:07.634Z,99469.34
2022-09-10T05:51:59.592Z,99470.19
2022-09-10T05:52:50.336Z,99465.69
2022-09-10T05:53:43.445Z,99472.03
2022-09-10T05:55:38.480Z,99473.19
2022-09-10T05:56:30.419Z,99474.19
2022-09-10T05:57:24.575Z,99470.16
2022-09-10T05:58:18.376Z,99477.19
2022-09-10T05:59:15.316Z,99476.19
2022-09-10T06:00:06.784Z,99478.69
2022-09-10T06:00:58.613Z,99482.34
2022-09-10T06:01:50.232Z,99476.19
2022-09-10T06:02:43.449Z,99475.31
2022-09-10T06:03:36.798Z,99477.84
2022-09-10T06:05:30.844Z,99477.34
2022-09-10T06:06:25.018Z,99479.84
2022-09-10T06:07:17.338Z,99481.81
2022-09-10T06:08:11.696Z,99473.34
2022-09-10T06:09:07.551Z,99479.22
2022-09-10T06:11:16.938Z,99486.88
2022-09-10T06:12:11.707Z,99487.69
2022-09-10T06:13:03.242Z,99481.38
2022-09-10T06:13:58.683Z,99481.72
2022-09-10T06:15:24.690Z,99490.06
2022-09-10T06:16:19.911Z,99485.53
2022-09-10T06:17:15.243Z,99492.72
2022-09-10T06:18:07.480Z,99491.53
2022-09-10T06:19:05.887Z,99485.38
2022-09-10T06:20:01.358Z,99486.22
2022-09-10T06:20:53.471Z,99497.75
2022-09-10T06:21:44.135Z,99481.88
2022-09-10T06:22:34.114Z,99494.56
2022-09-10T06:23:24.693Z,99487.38
2022-09-10T06:24:14.715Z,99492.72
2022-09-10T06:25:10.618Z,99493.56
2022-09-10T06:26:01.718Z,99487.38
2022-09-10T06:26:50.466Z,99502.38
2022-09-10T06:27:39.269Z,99498.06
2022-09-10T06:28:29.657Z,99499.72
2022-09-10T06:29:19.613Z,99501.88
2022-09-10T06:30:13.472Z,99496.53
2022-09-10T06:31:01.766Z,99502.72
2022-09-10T06:31:49.770Z,99495.88
2022-09-10T06:32:37.903Z,99498.38
2022-09-10T06:33:26.612Z,99502.19
2022-09-10T06:34:15.362Z,99500.38
2022-09-10T06:35:11.790Z,99500.88
2022-09-10T06:36:03.964Z,99503.72
2022-09-10T06:36:57.125Z,99504.88
2022-09-10T06:37:50.464Z,99501.38
2022-09-10T06:38:41.499Z,99502.31
2022-09-10T06:39:33.693Z,99506.16
2022-09-10T06:41:29.698Z,99499.53
2022-09-10T06:42:20.730Z,99511.06
2022-09-10T06:43:12.402Z,99510.22
2022-09-10T06:44:05.688Z,99510.22
2022-09-10T06:44:59.025Z,99501.50
2022-09-10T06:45:56.767Z,99510.69
2022-09-10T06:47:25.847Z,99498.97
2022-09-10T06:48:37.780Z,99499.53
2022-09-10T06:49:08.933Z,99505.16
2022-09-10T06:50:01.737Z,99507.53
2022-09-10T06:51:50.706Z,99501.50
2022-09-10T06:52:40.291Z,99508.22
2022-09-10T06:53:29.264Z,99509.38
2022-09-10T06:54:18.240Z,99505.72
2022-09-10T06:55:06.973Z,99509.38
2022-09-10T06:56:02.852Z,99510.22
2022-09-10T06:56:54.805Z,99508.50
2022-09-10T06:57:47.144Z,99517.81
2022-09-10T06:58:36.387Z,99511.34
2022-09-10T06:59:28.458Z,99509.66
2022-09-10T07:00:20.259Z,99500.81
2022-09-10T07:01:14.944Z,99516.25
2022-09-10T07:02:07.299Z,99508.84
2022-09-10T07:03:01.017Z,99517.81
2022-09-10T07:03:54.660Z,99514.84
2022-09-10T07:04:48.154Z,99513.84
2022-09-10T07:05:39.099Z,99509.66
2022-09-10T07:06:36.534Z,99510.03
2022-09-10T07:07:29.587Z,99513.00
2022-09-10T07:08:20.882Z,99512.41
2022-09-10T07:09:14.535Z,99512.56
2022-09-10T07:10:07.429Z,99509.38
2022-09-10T07:11:03.283Z,99511.56
2022-09-10T07:11:58.914Z,99517.50
2022-09-10T07:12:49.755Z,99507.66
2022-09-10T07:13:38.268Z,99514.41
2022-09-10T07:14:28.310Z,99514.41
2022-09-10T07:15:18.632Z,99519.91
2022-09-10T07:16:11.347Z,99510.34
2022-09-10T07:17:09.108Z,99515.31
2022-09-10T07:18:01.643Z,99512.03
2022-09-10T07:18:54.492Z,99515.53
2022-09-10T07:19:48.472Z,99517.50
2022-09-10T07:20:42.085Z,99518.22
2022-09-10T07:21:32.584Z,99513.56
2022-09-10T07:22:32.943Z,99520.19
2022-09-10T07:23:30.506Z,99519.91
2022-09-10T07:24:21.815Z,99510.22
2022-09-10T07:25:10.848Z,99526.34
2022-09-10T07:26:00.525Z,99523.00
2022-09-10T07:26:55.622Z,99521.16
2022-09-10T07:27:51.115Z,99523.00
2022-09-10T07:28:43.566Z,99517.66
2022-09-10T07:29:34.598Z,99518.69
2022-09-10T07:30:26.059Z,99521.81
2022-09-10T07:31:32.998Z,99523.47
2022-09-10T07:32:26.249Z,99524.53
2022-09-10T07:33:25.016Z,99524.25
2022-09-10T07:34:15.067Z,99524.09
2022-09-10T07:35:04.597Z,99525.09
2022-09-10T07:35:53.894Z,99528.06
2022-09-10T07:36:43.032Z,99526.22
2022-09-10T07:37:32.544Z,99523.69
2022-09-10T07:38:27.701Z,99529.03
2022-09-10T07:39:19.098Z,99533.41
2022-09-10T07:41:09.201Z,99531.69
2022-09-10T07:42:02.078Z,99530.88
2022-09-10T07:42:52.189Z,99534.25
2022-09-10T07:43:48.252Z,99525.53
2022-09-10T07:44:39.463Z,99532.56
2022-09-10T07:45:30.321Z,99535.75
2022-09-10T07:46:19.988Z,99536.19
2022-09-10T07:47:10.048Z,99539.97
2022-09-10T07:48:04.333Z,99535.91
2022-09-10T07:49:03.984Z,99539.09
2022-09-10T07:49:53.089Z,99538.59
2022-09-10T07:50:45.399Z,99540.44
2022-09-10T07:51:38.750Z,99536.44
2022-09-10T07:52:30.430Z,99537.97
2022-09-10T07:53:25.011Z,99536.28
2022-09-10T07:55:19.380Z,99544.97
2022-09-10T07:56:12.996Z,99545.97
2022-09-10T07:57:09.595Z,99540.56
2022-09-10T07:58:01.247Z,99548.44
2022-09-10T07:58:54.516Z,99542.25
2022-09-10T07:59:48.789Z,99538.88
2022-09-10T08:00:37.066Z,99541.25
2022-09-10T08:01:26.730Z,99545.63
2022-09-10T08:02:16.850Z,99536.44
2022-09-10T08:03:05.585Z,99540.94
2022-09-10T08:03:53.874Z,99542.63
2022-09-10T08:04:47.517Z,99545.63
2022-09-10T08:05:38.399Z,99540.28
2022-09-10T08:06:27.695Z,99542.09
2022-09-10T08:07:17.152Z,99543.63
2022-09-10T08:08:06.353Z,99544.28
2022-09-10T08:08:55.001Z,99548.66
2022-09-10T08:09:52.269Z,99541.63
2022-09-10T08:10:44.478Z,99547.16
2022-09-10T08:11:37.067Z,99545.50
2022-09-10T08:12:31.109Z,99546.50
2022-09-10T08:13:23.656Z,99547.63
2022-09-10T08:14:20.697Z,99548.66
2022-09-10T08:15:14.754Z,99550.31
2022-09-10T08:16:07.508Z,99551.00
2022-09-10T08:17:01.318Z,99553.69
2022-09-10T08:17:54.372Z,99554.16
2022-09-10T08:18:47.044Z,99552.66
2022-09-10T08:19:40.162Z,99552.66
2022-09-10T08:21:36.747Z,99557.19
2022-09-10T08:22:33.132Z,99560.16
2022-09-10T08:23:26.497Z,99561.34
2022-09-10T08:24:19.864Z,99561.34
2022-09-10T08:25:11.191Z,99559.34
2022-09-10T08:26:10.117Z,99555.66
2022-09-10T08:27:01.450Z,99557.34
2022-09-10T08:27:53.401Z,99551.47
2022-09-10T08:28:46.159Z,99556.00
2022-09-10T08:29:37.578Z,99561.16
2022-09-10T08:30:30.309Z,99561.66
2022-09-10T08:32:33.122Z,99562.16
2022-09-10T08:33:30.811Z,99562.16
2022-09-10T08:34:23.790Z,99559.81
2022-09-10T08:35:16.782Z,99563.63
2022-09-10T08:36:16.454Z,99559.97
2022-09-10T08:37:08.063Z,99563.91
2022-09-10T08:38:00.281Z,99560.94
2022-09-10T08:38:49.060Z,99560.94
2022-09-10T08:39:39.030Z,99560.47
2022-09-10T08:40:30.893Z,99564.97
2022-09-10T08:41:41.911Z,99561.16
2022-09-10T08:42:35.078Z,99563.00
2022-09-10T08:43:28.475Z,99559.50
2022-09-10T08:44:30.970Z,99557.34
2022-09-10T08:45:23.582Z,99559.19
2022-09-10T08:46:13.416Z,99553.69
2022-09-10T08:47:08.672Z,99555.28
2022-09-10T08:47:58.717Z,99563.31
2022-09-10T08:48:50.406Z,99563.31
2022-09-10T08:49:47.391Z,99554.63
2022-09-10T08:50:50.493Z,99550.66
2022-09-10T08:51:47.675Z,99560.31
2022-09-10T08:52:45.156Z,99555.50
2022-09-10T08:53:35.700Z,99558.47
2022-09-10T08:54:32.587Z,99553.84
2022-09-10T08:55:22.686Z,99558.00
2022-09-10T08:56:18.388Z,99553.69
2022-09-10T08:57:17.679Z,99561.00
2022-09-10T08:58:09.214Z,99563.16
2022-09-10T08:59:14.213Z,99559.34
2022-09-10T09:00:06.906Z,99563.50
2022-09-10T09:01:05.037Z,99568.03
2022-09-10T09:02:44.925Z,99566.31
2022-09-10T09:03:27.328Z,99565.34
2022-09-10T09:04:22.623Z,99566.03
2022-09-10T09:05:38.207Z,99567.03
2022-09-10T09:06:48.490Z,99568.84
2022-09-10T09:07:48.848Z,99577.41
2022-09-10T09:08:38.778Z,99567.69
2022-09-10T09:09:30.279Z,99578.22
2022-09-10T09:10:33.052Z,99577.00
2022-09-10T09:11:16.811Z,99582.34
2022-09-10T09:12:17.222Z,99571.81
2022-09-10T09:13:10.381Z,99572.69
2022-09-10T09:14:03.928Z,99567.34
2022-09-10T09:14:48.951Z,99578.03
2022-09-10T09:15:39.568Z,99571.66
2022-09-10T09:16:37.816Z,99573.03
2022-09-10T09:19:02.609Z,99570.63
2022-09-10T09:20:10.228Z,99567.66
2022-09-10T09:21:03.514Z,99574.28
2022-09-10T09:22:02.437Z,99568.66
2022-09-10T09:23:01.033Z,99566.69
2022-09-10T09:24:12.155Z,99572.84
2022-09-10T09:25:04.201Z,99568.31
2022-09-10T09:25:49.225Z,99563.00
2022-09-10T09:26:41.846Z,99556.97
2022-09-10T09:27:34.159Z,99567.34
2022-09-10T09:28:40.742Z,99568.03
2022-09-10T09:29:45.379Z,99563.50
2022-09-10T09:30:38.753Z,99568.94
2022-09-10T09:31:31.786Z,99559.66
2022-09-10T09:32:23.713Z,99561.34
2022-09-10T09:33:21.461Z,99564.31
2022-09-10T09:34:14.772Z,99567.66
2022-09-10T09:35:07.058Z,99558.66
2022-09-10T09:36:08.659Z,99567.97
2022-09-10T09:36:59.187Z,99568.31
2022-09-10T09:37:49.122Z,99559.81
2022-09-10T09:38:53.780Z,99563.00
2022-09-10T09:39:48.389Z,99568.31
2022-09-10T09:40:59.976Z,99559.34
2022-09-10T09:41:57.305Z,99562.69
2022-09-10T09:42:42.983Z,99562.69
2022-09-10T09:43:46.558Z,99559.03
2022-09-10T09:44:44.855Z,99569.00
2022-09-10T09:45:53.124Z,99563.34
2022-09-10T09:46:51.779Z,99561.69
2022-09-10T09:47:43.310Z,99571.34
2022-09-10T09:48:39.885Z,99571.03
2022-09-10T09:49:32.651Z,99568.84
2022-09-10T09:50:23.635Z,99563.34
2022-09-10T09:51:14.689Z,99566.72
2022-09-10T09:52:08.847Z,99562.38
2022-09-10T09:52:58.880Z,99568.53
2022-09-10T09:53:56.887Z,99563.19
2022-09-10T09:55:13.658Z,99568.69
2022-09-10T09:56:16.558Z,99567.34
2022-09-10T09:57:12.645Z,99566.47
2022-09-10T09:58:04.293Z,99562.69
2022-09-10T09:59:52.616Z,99559.69
2022-09-10T10:00:48.587Z,99564.34
2022-09-10T10:01:39.853Z,99556.03
2022-09-10T10:03:31.588Z,99567.34
2022-09-10T10:04:42.010Z,99560.47
2022-09-10T10:05:32.040Z,99563.16
2022-09-10T10:06:22.072Z,99569.34
2022-09-10T10:07:16.890Z,99565.31
2022-09-10T10:08:08.484Z,99564.75
2022-09-10T10:09:04.431Z,99563.31
2022-09-10T10:09:56.779Z,99560.31
2022-09-10T10:10:49.035Z,99565.50
2022-09-10T10:11:54.422Z,99557.34
2022-09-10T10:14:14.179Z,99557.34
2022-09-10T10:16:04.195Z,99561.34
2022-09-10T10:17:00.575Z,99562.00
2022-09-10T10:17:53.133Z,99557.13
2022-09-10T10:18:48.463Z,99560.16
2022-09-10T10:19:32.853Z,99570.00
2022-09-10T10:20:24.903Z,99558.81
2022-09-10T10:21:26.251Z,99562.31
2022-09-10T10:22:18.400Z,99556.59
2022-09-10T10:23:18.363Z,99563.63
2022-09-10T10:24:11.031Z,99560.63
2022-09-10T10:25:00.244Z,99562.91
2022-09-10T10:25:52.447Z,99563.63
2022-09-10T10:26:42.936Z,99562.78
2022-09-10T10:27:32.377Z,99561.94
2022-09-10T10:28:32.752Z,99551.78
2022-09-10T10:29:32.503Z,99553.63
2022-09-10T10:30:17.133Z,99549.94
2022-09-10T10:31:08.634Z,99549.94
2022-09-10T10:32:01.533Z,99555.81
2022-09-10T10:32:59.495Z,99553.91
2022-09-10T10:33:56.602Z,99550.72
2022-09-10T10:34:41.439Z,99547.50
2022-09-10T10:35:37.019Z,99557.16
2022-09-10T10:36:30.060Z,99554.19
2022-09-10T10:37:27.660Z,99543.19
2022-09-10T10:38:29.360Z,99546.22
2022-09-10T10:39:31.647Z,99548.22
2022-09-10T10:40:13.432Z,99536.81
2022-09-10T10:41:07.200Z,99543.84
2022-09-10T10:42:00.337Z,99551.88
2022-09-10T10:42:42.943Z,99541.84
2022-09-10T10:43:28.029Z,99545.16
2022-09-10T10:44:20.994Z,99540.47
2022-09-10T10:45:23.286Z,99542.63
2022-09-10T10:46:20.060Z,99540.31
2022-09-10T10:47:08.773Z,99529.47
2022-09-10T10:48:25.282Z,99534.13
2022-09-10T10:49:22.622Z,99538.63
2022-09-10T10:50:20.997Z,99527.28
2022-09-10T10:51:28.259Z,99537.91
2022-09-10T10:52:33.923Z,99525.78
2022-09-10T10:53:43.448Z,99536.00
2022-09-10T10:54:53.165Z,99530.66
2022-09-10T10:55:42.445Z,99531.34
2022-09-10T10:56:53.148Z,99537.53
2022-09-10T10:57:38.623Z,99529.88
2022-09-10T10:58:42.804Z,99526.69
2022-09-10T10:59:54.703Z,99527.53
2022-09-10T11:00:46.897Z,99533.53
2022-09-10T11:01:40.216Z,99532.03
2022-09-10T11:02:34.279Z,99527.53
2022-09-10T11:03:27.804Z,99521.00